Time;durP1;ratioP1;P1;durP2;ratioP2;P2;SDS_P1;SDS_P2;PMS_P1;PMS_P2;Temp;Humidity;BMP_temperature;BMP_pressure;BME280_temperature;BME280_humidity;BME280_pressure;Samples;Min_cycle;Max_cycle;Signal;HPM_P1;HPM_P2
2021/01/10 00:00:23;;;;;;;33.50;18.15;;;;;;;-148.56;100.00;61375.16;5056199;28;20053;-40
2021/01/10 00:02:53;;;;;;;32.80;17.48;;;;;;;-148.56;100.00;61375.16;5033793;28;20037;-40
2021/01/10 00:05:18;;;;;;;35.05;17.50;;;;;;;-148.56;100.00;61375.16;5034155;28;20033;-43
2021/01/10 00:07:43;;;;;;;38.15;18.30;;;;;;;-148.56;100.00;61375.16;5037175;28;20680;-39
2021/01/10 00:10:09;;;;;;;35.40;18.20;;;;;;;-148.56;100.00;61375.16;5045069;28;20052;-40
2021/01/10 00:12:35;;;;;;;35.25;17.55;;;;;;;-148.56;100.00;61375.16;5043425;28;20047;-40
2021/01/10 00:15:03;;;;;;;31.50;16.83;;;;;;;-148.56;100.00;61375.16;5042726;28;20044;-39
2021/01/10 00:17:29;;;;;;;35.25;17.63;;;;;;;-148.56;100.00;61375.16;5048228;28;20047;-42
2021/01/10 00:19:56;;;;;;;32.03;16.45;;;;;;;-148.56;100.00;61375.16;5050639;28;20037;-40
2021/01/10 00:22:23;;;;;;;32.65;17.23;;;;;;;-148.56;100.00;61375.16;5051153;28;20044;-39
2021/01/10 00:24:49;;;;;;;30.70;16.67;;;;;;;-148.56;100.00;61375.16;5052046;28;20466;-41
2021/01/10 00:27:15;;;;;;;32.40;16.90;;;;;;;-148.56;100.00;61375.16;5041724;28;20056;-42
2021/01/10 00:29:50;;;;;;;30.70;17.05;;;;;;;-148.56;100.00;61375.16;5042268;28;20071;-41
2021/01/10 00:32:16;;;;;;;31.90;16.58;;;;;;;-148.56;100.00;61375.16;5040603;28;20139;-41
2021/01/10 00:34:41;;;;;;;31.50;16.25;;;;;;;-148.56;100.00;61375.16;5043496;28;20037;-42
2021/01/10 00:37:11;;;;;;;27.27;16.75;;;;;;;-148.56;100.00;61375.16;5048790;28;20034;-43
2021/01/10 00:39:36;;;;;;;29.98;16.05;;;;;;;-148.56;100.00;61375.16;5051627;28;20047;-42
2021/01/10 00:42:09;;;;;;;26.17;15.63;;;;;;;-148.56;100.00;61375.16;5041761;28;20033;-42
2021/01/10 00:44:36;;;;;;;30.90;15.68;;;;;;;-148.56;100.00;61375.16;5034411;28;20062;-41
2021/01/10 00:47:02;;;;;;;29.15;15.20;;;;;;;-148.56;100.00;61375.16;5041532;28;20033;-43
2021/01/10 00:49:28;;;;;;;28.88;16.17;;;;;;;-148.56;100.00;61375.16;5045456;28;20032;-38
2021/01/10 00:51:55;;;;;;;28.75;15.75;;;;;;;-148.56;100.00;61375.16;5032127;28;20571;-44
2021/01/10 00:54:21;;;;;;;31.08;15.57;;;;;;;-148.56;100.00;61375.16;5045156;28;20048;-42
2021/01/10 00:56:47;;;;;;;27.52;15.40;;;;;;;-148.56;100.00;61375.16;5045723;28;20102;-38
2021/01/10 00:59:13;;;;;;;25.00;14.70;;;;;;;-148.56;100.00;61375.16;5038153;28;20509;-43
2021/01/10 01:01:39;;;;;;;29.17;14.88;;;;;;;-148.56;100.00;61375.16;5029101;28;20056;-39
2021/01/10 01:04:05;;;;;;;30.77;15.45;;;;;;;-148.56;100.00;61375.16;5038879;28;20513;-43
2021/01/10 01:06:31;;;;;;;27.08;14.48;;;;;;;-148.56;100.00;61375.16;5048368;28;20048;-43
2021/01/10 01:08:57;;;;;;;24.77;14.32;;;;;;;-148.56;100.00;61375.16;5042718;28;20048;-43
2021/01/10 01:11:32;;;;;;;30.63;14.75;;;;;;;-148.56;100.00;61375.16;5031837;28;20052;-40
2021/01/10 01:13:58;;;;;;;27.88;15.63;;;;;;;-148.56;100.00;61375.16;5056370;28;20055;-41
2021/01/10 01:16:24;;;;;;;22.65;14.07;;;;;;;-148.56;100.00;61375.16;5042793;28;20053;-41
2021/01/10 01:18:50;;;;;;;23.70;14.27;;;;;;;-148.56;100.00;61375.16;5045474;28;20039;-40
2021/01/10 01:21:19;;;;;;;25.30;13.82;;;;;;;-148.56;100.00;61375.16;5050933;28;20037;-42
2021/01/10 01:23:45;;;;;;;27.02;14.52;;;;;;;-148.56;100.00;61375.16;5041071;28;20048;-41
2021/01/10 01:26:20;;;;;;;32.08;14.82;;;;;;;-148.56;100.00;61375.16;5047753;28;20509;-42
2021/01/10 01:28:46;;;;;;;29.20;14.15;;;;;;;-148.56;100.00;61375.16;5042029;28;20049;-43
2021/01/10 01:31:15;;;;;;;24.55;13.95;;;;;;;-148.56;100.00;61375.16;5036417;28;20045;-43
2021/01/10 01:33:41;;;;;;;25.05;13.40;;;;;;;-148.56;100.00;61375.16;5041144;28;20037;-42
2021/01/10 01:36:14;;;;;;;23.42;14.02;;;;;;;-148.56;100.00;61375.16;5049274;28;20567;-40
2021/01/10 01:38:39;;;;;;;25.63;13.20;;;;;;;-148.56;100.00;61375.16;5038132;28;20044;-40
2021/01/10 01:41:08;;;;;;;26.25;13.27;;;;;;;-148.56;100.00;61375.16;5031374;28;20624;-41
2021/01/10 01:43:34;;;;;;;22.25;13.13;;;;;;;-148.56;100.00;61375.16;5045875;28;20043;-39
2021/01/10 01:46:01;;;;;;;24.13;13.88;;;;;;;-148.56;100.00;61375.16;5043959;28;20462;-39
2021/01/10 01:48:27;;;;;;;21.58;13.25;;;;;;;-148.56;100.00;61375.16;5039673;28;20037;-43
2021/01/10 01:50:52;;;;;;;23.58;13.90;;;;;;;-148.56;100.00;61375.16;5043307;28;20040;-45
2021/01/10 01:53:18;;;;;;;25.52;13.98;;;;;;;-148.56;100.00;61375.16;5042534;28;20052;-36
2021/01/10 01:55:44;;;;;;;24.38;13.93;;;;;;;-148.56;100.00;61375.16;5043365;28;20187;-40
2021/01/10 01:58:09;;;;;;;23.30;12.52;;;;;;;-148.56;100.00;61375.16;5024829;28;20044;-40
2021/01/10 02:00:35;;;;;;;28.73;13.07;;;;;;;-148.56;100.00;61375.16;5038235;28;20409;-43
2021/01/10 02:03:00;;;;;;;23.35;12.75;;;;;;;-148.56;100.00;61375.16;5039492;28;20048;-43
2021/01/10 02:05:27;;;;;;;20.45;12.60;;;;;;;-148.56;100.00;61375.16;5040417;28;20045;-40
2021/01/10 02:08:05;;;;;;;19.40;12.32;;;;;;;-148.56;100.00;61375.16;5022430;28;20033;-41
2021/01/10 02:10:35;;;;;;;19.58;12.27;;;;;;;-148.56;100.00;61375.16;5022332;28;20041;-39
2021/01/10 02:13:01;;;;;;;21.52;12.13;;;;;;;-148.56;100.00;61375.16;5041365;28;20053;-39
2021/01/10 02:15:29;;;;;;;19.30;11.95;;;;;;;-148.56;100.00;61375.16;5024770;28;20528;-41
2021/01/10 02:17:56;;;;;;;20.65;12.10;;;;;;;-148.56;100.00;61375.16;5026111;28;20047;-42
2021/01/10 02:20:29;;;;;;;19.08;11.60;;;;;;;-148.56;100.00;61375.16;5040944;28;20091;-42
2021/01/10 02:22:59;;;;;;;21.92;11.93;;;;;;;-148.56;100.00;61375.16;5053320;28;20044;-41
2021/01/10 02:25:25;;;;;;;20.83;12.32;;;;;;;-148.56;100.00;61375.16;5032569;28;20097;-42
2021/01/10 02:27:50;;;;;;;18.30;11.80;;;;;;;-148.56;100.00;61375.16;5054306;28;20493;-42
2021/01/10 02:30:16;;;;;;;21.95;12.52;;;;;;;-148.56;100.00;61375.16;5050336;28;20041;-43
2021/01/10 02:32:46;;;;;;;18.92;11.65;;;;;;;-148.56;100.00;61375.16;5043793;28;20510;-44
2021/01/10 02:35:11;;;;;;;18.02;11.43;;;;;;;-148.56;100.00;61375.16;5051646;28;20517;-40
2021/01/10 02:37:43;;;;;;;18.27;11.48;;;;;;;-148.56;100.00;61375.16;5043763;28;20032;-41
2021/01/10 02:40:19;;;;;;;15.15;10.65;;;;;;;-148.56;100.00;61375.16;5046779;28;20025;-44
2021/01/10 02:42:51;;;;;;;19.33;11.80;;;;;;;-148.56;100.00;61375.16;5061259;28;20033;-42
2021/01/10 02:45:19;;;;;;;17.77;10.95;;;;;;;-148.56;100.00;61375.16;5026920;28;20103;-42
2021/01/10 02:47:45;;;;;;;21.00;11.80;;;;;;;-148.56;100.00;61375.16;5043809;28;20041;-40
2021/01/10 02:50:10;;;;;;;15.52;10.52;;;;;;;-148.56;100.00;61375.16;5040572;28;21987;-39
2021/01/10 02:52:36;;;;;;;19.15;11.45;;;;;;;-148.56;100.00;61375.16;5033894;28;20179;-43
2021/01/10 02:55:03;;;;;;;18.90;11.07;;;;;;;-148.56;100.00;61375.16;5043374;28;20041;-42
2021/01/10 02:57:32;;;;;;;19.20;11.38;;;;;;;-148.56;100.00;61375.16;5052239;28;20541;-42
2021/01/10 02:59:58;;;;;;;19.08;11.30;;;;;;;-148.56;100.00;61375.16;5050503;28;20112;-43
2021/01/10 03:02:23;;;;;;;19.45;10.90;;;;;;;-148.56;100.00;61375.16;5055423;28;20033;-41
2021/01/10 03:04:49;;;;;;;17.17;10.63;;;;;;;-148.56;100.00;61375.16;5042457;28;20469;-39
2021/01/10 03:07:15;;;;;;;18.05;11.15;;;;;;;-148.56;100.00;61375.16;5051482;28;20042;-42
2021/01/10 03:09:41;;;;;;;16.40;10.57;;;;;;;-148.56;100.00;61375.16;5036901;28;20046;-43
2021/01/10 03:12:25;;;;;;;16.17;10.32;;;;;;;-148.56;100.00;61375.16;5038288;28;20929;-40
2021/01/10 03:14:54;;;;;;;17.50;10.73;;;;;;;-148.56;100.00;61375.16;5055865;28;20048;-44
2021/01/10 03:17:40;;;;;;;18.67;10.57;;;;;;;-148.56;100.00;61375.16;5043543;28;20049;-42
2021/01/10 03:20:07;;;;;;;16.52;10.05;;;;;;;-148.56;100.00;61375.16;5040907;28;20021;-41
2021/01/10 03:22:33;;;;;;;15.77;10.85;;;;;;;-148.56;100.00;61375.16;5046468;28;20813;-40
2021/01/10 03:24:59;;;;;;;18.70;10.50;;;;;;;-148.56;100.00;61375.16;5043139;28;20045;-38
2021/01/10 03:27:25;;;;;;;17.60;10.35;;;;;;;-148.56;100.00;61375.16;5042425;28;20545;-38
2021/01/10 03:29:51;;;;;;;17.13;9.85;;;;;;;-148.56;100.00;61375.16;5041109;28;20047;-44
2021/01/10 03:32:17;;;;;;;16.85;10.00;;;;;;;-148.56;100.00;61375.16;5043574;28;20064;-42
2021/01/10 03:34:42;;;;;;;17.02;10.40;;;;;;;-148.56;100.00;61375.16;5045262;28;20048;-39
2021/01/10 03:37:08;;;;;;;17.17;10.18;;;;;;;-148.56;100.00;61375.16;5045039;28;20032;-41
2021/01/10 03:39:34;;;;;;;14.73;8.98;;;;;;;-148.56;100.00;61375.16;5048418;28;20064;-39
2021/01/10 03:42:00;;;;;;;16.95;9.68;;;;;;;-148.56;100.00;61375.16;5038699;28;20234;-41
2021/01/10 03:44:26;;;;;;;14.75;9.65;;;;;;;-148.56;100.00;61375.16;5048541;28;20120;-40
2021/01/10 03:46:52;;;;;;;15.98;10.35;;;;;;;-148.56;100.00;61375.16;5045485;28;20533;-41
2021/01/10 03:49:17;;;;;;;15.20;10.02;;;;;;;-148.56;100.00;61375.16;5049477;28;20028;-39
2021/01/10 03:51:43;;;;;;;15.70;9.13;;;;;;;-148.56;100.00;61375.16;5050814;28;20067;-41
2021/01/10 03:54:09;;;;;;;14.50;9.32;;;;;;;-148.56;100.00;61375.16;5040098;28;20047;-38
2021/01/10 03:56:34;;;;;;;15.27;9.68;;;;;;;-148.56;100.00;61375.16;5037291;28;20032;-42
2021/01/10 03:59:00;;;;;;;14.45;9.38;;;;;;;-148.56;100.00;61375.16;5045127;28;20041;-42
2021/01/10 04:01:26;;;;;;;14.25;8.85;;;;;;;-148.56;100.00;61375.16;5051431;28;20066;-42
2021/01/10 04:03:51;;;;;;;14.90;9.57;;;;;;;-148.56;100.00;61375.16;5034965;28;20041;-43
2021/01/10 04:06:17;;;;;;;14.73;8.95;;;;;;;-148.56;100.00;61375.16;5044707;28;20067;-42
2021/01/10 04:08:46;;;;;;;16.73;9.23;;;;;;;-148.56;100.00;61375.16;5048392;28;20406;-42
2021/01/10 04:11:12;;;;;;;15.30;9.23;;;;;;;-148.56;100.00;61375.16;5040500;28;20569;-44
2021/01/10 04:13:38;;;;;;;15.18;9.00;;;;;;;-148.56;100.00;61375.16;5044407;28;20041;-45
2021/01/10 04:16:03;;;;;;;14.20;9.40;;;;;;;-148.56;100.00;61375.16;5039279;28;20052;-39
2021/01/10 04:18:29;;;;;;;14.85;9.13;;;;;;;-148.56;100.00;61375.16;5046650;28;20119;-41
2021/01/10 04:20:55;;;;;;;16.50;9.10;;;;;;;-148.56;100.00;61375.16;5036066;28;20529;-39
2021/01/10 04:23:20;;;;;;;11.60;8.32;;;;;;;-148.56;100.00;61375.16;5039235;28;20094;-39
2021/01/10 04:25:48;;;;;;;12.30;6.03;;;;;;;-148.56;100.00;61375.16;5041783;28;20051;-42
2021/01/10 04:28:14;;;;;;;13.02;8.13;;;;;;;-148.56;100.00;61375.16;5034888;28;20074;-39
2021/01/10 04:30:40;;;;;;;13.30;8.02;;;;;;;-148.56;100.00;61375.16;5035711;28;20502;-41
2021/01/10 04:33:06;;;;;;;12.35;8.60;;;;;;;-148.56;100.00;61375.16;5043392;28;20838;-42
2021/01/10 04:35:31;;;;;;;14.63;7.90;;;;;;;-148.56;100.00;61375.16;5041797;28;20041;-41
2021/01/10 04:37:56;;;;;;;13.45;8.57;;;;;;;-148.56;100.00;61375.16;5047863;28;20575;-43
2021/01/10 04:40:22;;;;;;;13.32;7.82;;;;;;;-148.56;100.00;61375.16;5047898;28;20049;-42
2021/01/10 04:42:48;;;;;;;13.55;8.20;;;;;;;-148.56;100.00;61375.16;5047093;28;20056;-42
2021/01/10 04:45:14;;;;;;;14.60;8.25;;;;;;;-148.56;100.00;61375.16;5033638;28;20782;-41
2021/01/10 04:47:39;;;;;;;12.05;7.72;;;;;;;-148.56;100.00;61375.16;5018624;28;20060;-41
2021/01/10 04:50:05;;;;;;;12.30;8.13;;;;;;;-148.56;100.00;61375.16;5043158;28;20831;-42
2021/01/10 04:52:32;;;;;;;11.48;7.32;;;;;;;-148.56;100.00;61375.16;5039784;28;20068;-40
2021/01/10 04:54:58;;;;;;;11.18;7.05;;;;;;;-148.56;100.00;61375.16;5042617;28;20037;-36
2021/01/10 04:57:23;;;;;;;15.65;8.38;;;;;;;-148.56;100.00;61375.16;5043507;28;20056;-41
2021/01/10 04:59:49;;;;;;;11.73;7.30;;;;;;;-148.56;100.00;61375.16;5045514;28;20043;-43
2021/01/10 05:02:15;;;;;;;12.55;8.15;;;;;;;-148.56;100.00;61375.16;5020627;28;20108;-41
2021/01/10 05:04:41;;;;;;;9.63;7.20;;;;;;;-148.56;100.00;61375.16;5035945;28;20056;-42
2021/01/10 05:07:06;;;;;;;11.27;7.82;;;;;;;-148.56;100.00;61375.16;5048681;28;20040;-43
2021/01/10 05:09:32;;;;;;;13.13;6.93;;;;;;;-148.56;100.00;61375.16;5044963;28;20033;-37
2021/01/10 05:11:58;;;;;;;12.48;6.78;;;;;;;-148.56;100.00;61375.16;5033828;28;20045;-40
2021/01/10 05:14:23;;;;;;;10.88;6.68;;;;;;;-148.56;100.00;61375.16;5037578;28;20643;-43
2021/01/10 05:16:49;;;;;;;13.98;7.30;;;;;;;-148.56;100.00;61375.16;5040461;28;20044;-42
2021/01/10 05:19:21;;;;;;;11.98;7.15;;;;;;;-148.56;100.00;61375.16;5041994;28;20127;-42
2021/01/10 05:21:47;;;;;;;10.40;7.00;;;;;;;-148.56;100.00;61375.16;5039153;28;20045;-43
2021/01/10 05:24:19;;;;;;;10.93;7.22;;;;;;;-148.56;100.00;61375.16;5037996;28;20036;-39
2021/01/10 05:26:44;;;;;;;11.50;7.10;;;;;;;-148.56;100.00;61375.16;5041330;28;20040;-40
2021/01/10 05:29:10;;;;;;;11.95;6.78;;;;;;;-148.56;100.00;61375.16;5040612;28;20029;-39
2021/01/10 05:31:39;;;;;;;11.35;6.95;;;;;;;-148.56;100.00;61375.16;5040130;28;20065;-41
2021/01/10 05:34:08;;;;;;;11.35;6.93;;;;;;;-148.56;100.00;61375.16;5040490;28;20037;-40
2021/01/10 05:36:36;;;;;;;11.85;7.20;;;;;;;-148.56;100.00;61375.16;5043038;28;20584;-43
2021/01/10 05:39:16;;;;;;;12.30;7.18;;;;;;;-148.56;100.00;61375.16;5041354;28;20580;-44
2021/01/10 05:41:57;;;;;;;10.52;6.88;;;;;;;-148.56;100.00;61375.16;5036270;28;20040;-44
2021/01/10 05:44:26;;;;;;;9.68;6.13;;;;;;;-148.56;100.00;61375.16;5046748;28;20049;-40
2021/01/10 05:47:02;;;;;;;10.25;6.88;;;;;;;-148.56;100.00;61375.16;5028920;28;20052;-42
2021/01/10 05:49:27;;;;;;;10.77;6.60;;;;;;;-148.56;100.00;61375.16;5036278;28;20049;-41
2021/01/10 05:51:53;;;;;;;10.65;7.13;;;;;;;-148.56;100.00;61375.16;5042241;28;20110;-40
2021/01/10 05:54:37;;;;;;;10.75;6.75;;;;;;;-148.56;100.00;61375.16;5046132;28;20048;-38
2021/01/10 05:57:10;;;;;;;9.48;6.13;;;;;;;-148.56;100.00;61375.16;5042233;28;20044;-39
2021/01/10 05:59:47;;;;;;;9.38;6.85;;;;;;;-148.56;100.00;61375.16;5051097;28;20043;-42
2021/01/10 06:02:12;;;;;;;9.40;6.35;;;;;;;-148.56;100.00;61375.16;5044877;28;20653;-43
2021/01/10 06:04:38;;;;;;;9.32;6.13;;;;;;;-148.56;100.00;61375.16;5041542;28;20051;-40
2021/01/10 06:07:04;;;;;;;11.70;6.47;;;;;;;-148.56;100.00;61375.16;5028531;28;20041;-43
2021/01/10 06:09:43;;;;;;;10.93;6.47;;;;;;;-148.56;100.00;61375.16;5056836;28;20052;-37
2021/01/10 06:12:22;;;;;;;8.38;6.25;;;;;;;-148.56;100.00;61375.16;5054667;28;20036;-43
2021/01/10 06:14:48;;;;;;;10.68;6.47;;;;;;;-148.56;100.00;61375.16;5048953;28;20036;-41
2021/01/10 06:17:13;;;;;;;9.40;6.22;;;;;;;-148.56;100.00;61375.16;5039925;28;20157;-39
2021/01/10 06:19:38;;;;;;;8.60;5.57;;;;;;;-148.56;100.00;61375.16;5058874;28;20028;-41
2021/01/10 06:22:04;;;;;;;8.85;6.25;;;;;;;-148.56;100.00;61375.16;5041530;28;20513;-38
2021/01/10 06:24:32;;;;;;;9.20;6.32;;;;;;;-148.56;100.00;61375.16;5050033;28;20040;-40
2021/01/10 06:27:03;;;;;;;10.02;6.10;;;;;;;-148.56;100.00;61375.16;5049572;28;20041;-35
2021/01/10 06:29:30;;;;;;;9.60;6.43;;;;;;;-148.56;100.00;61375.16;5032949;28;20041;-39
2021/01/10 06:31:56;;;;;;;9.13;6.18;;;;;;;-148.56;100.00;61375.16;5037478;28;20045;-41
2021/01/10 06:34:22;;;;;;;9.30;6.03;;;;;;;-148.56;100.00;61375.16;5028114;28;20032;-39
2021/01/10 06:36:47;;;;;;;8.52;6.10;;;;;;;-148.56;100.00;61375.16;5042913;28;20106;-43
2021/01/10 06:39:14;;;;;;;8.43;5.88;;;;;;;-148.56;100.00;61375.16;5035363;28;20052;-40
2021/01/10 06:42:07;;;;;;;9.05;5.57;;;;;;;-148.56;100.00;61375.16;5036333;28;20041;-43
2021/01/10 06:44:35;;;;;;;8.50;5.72;;;;;;;-148.56;100.00;61375.16;5043177;28;20430;-40
2021/01/10 06:47:01;;;;;;;8.23;5.93;;;;;;;-148.56;100.00;61375.16;5040219;28;20052;-43
2021/01/10 06:49:26;;;;;;;8.23;6.00;;;;;;;-148.56;100.00;61375.16;5044770;28;20098;-35
2021/01/10 06:51:55;;;;;;;6.72;5.22;;;;;;;-148.56;100.00;61375.16;5052756;28;20456;-41
2021/01/10 06:54:21;;;;;;;8.57;5.70;;;;;;;-148.56;100.00;61375.16;5049006;28;20045;-41
2021/01/10 06:56:48;;;;;;;7.97;5.65;;;;;;;-148.56;100.00;61375.16;5047558;28;20045;-42
2021/01/10 06:59:15;;;;;;;8.10;5.85;;;;;;;-148.56;100.00;61375.16;5042806;28;20530;-37
2021/01/10 07:01:50;;;;;;;7.97;5.70;;;;;;;-148.56;100.00;61375.16;5038754;28;20041;-41
2021/01/10 07:04:16;;;;;;;7.65;5.53;;;;;;;-148.56;100.00;61375.16;5053798;28;20031;-40
2021/01/10 07:06:43;;;;;;;8.15;5.57;;;;;;;-148.56;100.00;61375.16;5052420;28;20040;-43
2021/01/10 07:09:09;;;;;;;7.68;5.20;;;;;;;-148.56;100.00;61375.16;5044819;28;20126;-41
2021/01/10 07:11:35;;;;;;;8.02;5.47;;;;;;;-148.56;100.00;61375.16;5039657;28;20654;-40
2021/01/10 07:14:01;;;;;;;6.85;5.22;;;;;;;-148.56;100.00;61375.16;5047764;28;20064;-44
2021/01/10 07:16:27;;;;;;;7.70;5.30;;;;;;;-148.56;100.00;61375.16;5042669;28;20616;-40
2021/01/10 07:19:18;;;;;;;8.00;5.68;;;;;;;-148.56;100.00;61375.16;5058108;28;20447;-39
2021/01/10 07:21:48;;;;;;;7.30;5.15;;;;;;;-148.56;100.00;61375.16;5040507;28;20430;-43
2021/01/10 07:24:14;;;;;;;6.65;5.10;;;;;;;-148.56;100.00;61375.16;5072155;28;20041;-42
2021/01/10 07:26:42;;;;;;;6.55;5.15;;;;;;;-148.56;100.00;61375.16;5039928;28;20500;-41
2021/01/10 07:29:29;;;;;;;7.25;5.35;;;;;;;-148.56;100.00;61375.16;5039544;28;20087;-40
2021/01/10 07:32:21;;;;;;;6.47;4.78;;;;;;;-148.56;100.00;61375.16;5043656;28;20287;-40
2021/01/10 07:34:46;;;;;;;;;;;;;;;-148.56;100.00;61375.16;5040912;28;20450;-40
2021/01/10 07:37:27;;;;;;;8.77;5.38;;;;;;;-148.56;100.00;61375.16;5045397;28;19916;-41
2021/01/10 07:40:06;;;;;;;7.68;5.25;;;;;;;-148.56;100.00;61375.16;5039474;28;20067;-42
2021/01/10 07:42:32;;;;;;;9.48;5.53;;;;;;;-148.56;100.00;61375.16;5041007;28;20126;-42
2021/01/10 07:44:59;;;;;;;6.60;5.03;;;;;;;-148.56;100.00;61375.16;5030833;28;20101;-44
2021/01/10 07:47:34;;;;;;;8.02;4.90;;;;;;;-148.56;100.00;61375.16;5044195;28;20037;-40
2021/01/10 07:50:00;;;;;;;11.77;4.88;;;;;;;-148.56;100.00;61375.16;5047513;28;20056;-40
2021/01/10 07:52:45;;;;;;;7.18;4.93;;;;;;;-148.56;100.00;61375.16;5043167;28;20099;-42
2021/01/10 07:55:19;;;;;;;7.82;5.07;;;;;;;-148.56;100.00;61375.16;5036938;28;20112;-42
2021/01/10 07:57:47;;;;;;;8.40;5.00;;;;;;;-148.56;100.00;61375.16;5034417;28;20127;-43
2021/01/10 08:00:14;;;;;;;6.75;4.63;;;;;;;-148.56;100.00;61375.16;5032424;28;20029;-41
2021/01/10 08:02:48;;;;;;;8.88;4.68;;;;;;;-148.56;100.00;61375.16;5034173;28;20052;-36
2021/01/10 08:05:21;;;;;;;10.38;4.78;;;;;;;-148.56;100.00;61375.16;5034094;28;21031;-42
2021/01/10 08:07:54;;;;;;;7.00;4.82;;;;;;;-148.56;100.00;61375.16;5031367;28;20037;-43
2021/01/10 08:10:20;;;;;;;6.60;4.25;;;;;;;-148.56;100.00;61375.16;5036961;28;20049;-39
2021/01/10 08:12:46;;;;;;;7.03;4.80;;;;;;;-148.56;100.00;61375.16;5031405;28;20060;-41
2021/01/10 08:15:12;;;;;;;7.00;4.55;;;;;;;-148.56;100.00;61375.16;5030634;28;20044;-38
2021/01/10 08:17:39;;;;;;;8.35;4.65;;;;;;;-148.56;100.00;61375.16;5034952;28;20033;-42
2021/01/10 08:20:06;;;;;;;9.43;4.63;;;;;;;-148.56;100.00;61375.16;5033086;28;20603;-45
2021/01/10 08:22:31;;;;;;;7.35;4.70;;;;;;;-148.56;100.00;61375.16;5033847;28;20095;-43
2021/01/10 08:24:58;;;;;;;7.07;4.90;;;;;;;-148.56;100.00;61375.16;5032746;28;20041;-39
2021/01/10 08:27:25;;;;;;;6.57;4.63;;;;;;;-148.56;100.00;61375.16;5030834;28;20150;-44
2021/01/10 08:29:51;;;;;;;7.57;4.30;;;;;;;-148.56;100.00;61375.16;5033393;28;20440;-42
2021/01/10 08:32:17;;;;;;;8.15;4.35;;;;;;;-148.56;100.00;61375.16;5044654;28;20413;-43
2021/01/10 08:34:50;;;;;;;6.55;4.60;;;;;;;-148.56;100.00;61375.16;5047373;28;20033;-41
2021/01/10 08:37:19;;;;;;;5.60;4.28;;;;;;;-148.56;100.00;61375.16;5034078;28;20114;-43
2021/01/10 08:39:56;;;;;;;6.40;4.13;;;;;;;-148.56;100.00;61375.16;5033856;28;20162;-42
2021/01/10 08:42:22;;;;;;;6.85;4.95;;;;;;;-148.56;100.00;61375.16;5031626;28;20047;-44
2021/01/10 08:44:47;;;;;;;9.90;4.55;;;;;;;-148.56;100.00;61375.16;5032934;28;20041;-44
2021/01/10 08:47:13;;;;;;;6.32;4.50;;;;;;;-148.56;100.00;61375.16;5027300;28;20040;-42
2021/01/10 08:49:38;;;;;;;6.15;4.20;;;;;;;-148.56;100.00;61375.16;5046153;28;20382;-39
2021/01/10 08:52:05;;;;;;;6.50;4.05;;;;;;;-148.56;100.00;61375.16;5032775;28;20053;-44
2021/01/10 08:54:30;;;;;;;6.88;4.70;;;;;;;-148.56;100.00;61375.16;5029121;28;20033;-39
2021/01/10 08:56:58;;;;;;;7.78;4.40;;;;;;;-148.56;100.00;61375.16;5032020;28;20094;-41
2021/01/10 08:59:35;;;;;;;8.05;4.63;;;;;;;-148.56;100.00;61375.16;5031582;28;20041;-39
2021/01/10 09:02:11;;;;;;;7.70;4.10;;;;;;;-148.56;100.00;61375.16;5032717;28;20055;-41
2021/01/10 09:04:43;;;;;;;6.70;4.15;;;;;;;-148.56;100.00;61375.16;5034295;28;20402;-39
2021/01/10 09:07:08;;;;;;;;;;;;;;;-148.56;100.00;61375.16;5033586;28;20041;-44
2021/01/10 09:09:53;;;;;;;6.60;4.45;;;;;;;-148.56;100.00;61375.16;5032204;28;20385;-41
2021/01/10 09:12:29;;;;;;;8.93;4.07;;;;;;;-148.56;100.00;61375.16;5029501;28;20041;-45
2021/01/10 09:15:08;;;;;;;8.20;4.28;;;;;;;-148.56;100.00;61375.16;5032735;28;20032;-43
2021/01/10 09:17:57;;;;;;;5.32;3.90;;;;;;;-148.56;100.00;61375.16;5032529;28;20040;-42
2021/01/10 09:20:49;;;;;;;5.55;3.65;;;;;;;-148.56;100.00;61375.16;5027025;28;20112;-39
2021/01/10 09:23:14;;;;;;;6.65;4.13;;;;;;;-148.56;100.00;61375.16;5035355;28;20100;-43
2021/01/10 09:25:40;;;;;;;5.78;4.22;;;;;;;-148.56;100.00;61375.16;5029380;28;20029;-40
2021/01/10 09:28:11;;;;;;;6.43;4.05;;;;;;;-148.56;100.00;61375.16;5030748;28;20782;-42
2021/01/10 09:30:37;;;;;;;;;;;;;;;-148.56;100.00;61375.16;5031593;28;20053;-39
2021/01/10 09:33:04;;;;;;;7.35;4.20;;;;;;;-148.56;100.00;61375.16;5034891;28;19978;-38
2021/01/10 09:35:36;;;;;;;4.90;3.72;;;;;;;-148.56;100.00;61375.16;5033293;28;20047;-43
2021/01/10 09:38:07;;;;;;;5.95;3.88;;;;;;;-148.56;100.00;61375.16;5037890;28;20576;-43
2021/01/10 09:40:33;;;;;;;15.18;3.97;;;;;;;-148.56;100.00;61375.16;5044183;28;20051;-41
2021/01/10 09:42:58;;;;;;;8.43;3.60;;;;;;;-148.56;100.00;61375.16;5039968;28;20076;-42
2021/01/10 09:45:33;;;;;;;5.55;3.97;;;;;;;-148.56;100.00;61375.16;5040874;28;20649;-40
2021/01/10 09:47:58;;;;;;;7.88;3.83;;;;;;;-148.56;100.00;61375.16;5033608;28;21853;-44
2021/01/10 09:50:24;;;;;;;6.57;3.92;;;;;;;-148.56;100.00;61375.16;5028144;28;20049;-39
2021/01/10 09:52:53;;;;;;;5.30;3.67;;;;;;;-148.56;100.00;61375.16;5032544;28;20041;-42
2021/01/10 09:55:18;;;;;;;8.32;3.75;;;;;;;-148.56;100.00;61375.16;5033990;28;20032;-43
2021/01/10 09:57:44;;;;;;;6.50;4.03;;;;;;;-148.56;100.00;61375.16;5031274;28;20032;-40
2021/01/10 10:00:15;;;;;;;6.28;4.00;;;;;;;-148.56;100.00;61375.16;5032425;28;20049;-41
2021/01/10 10:02:40;;;;;;;8.52;3.67;;;;;;;-148.56;100.00;61375.16;5027515;28;20075;-43
2021/01/10 10:05:12;;;;;;;5.40;3.60;;;;;;;-148.56;100.00;61375.16;5035506;28;20553;-43
2021/01/10 10:07:42;;;;;;;4.35;3.40;;;;;;;-148.56;100.00;61375.16;5040973;28;20036;-37
2021/01/10 10:10:17;;;;;;;4.60;3.80;;;;;;;-148.56;100.00;61375.16;5035922;28;20405;-43
2021/01/10 10:12:50;;;;;;;4.60;3.65;;;;;;;-148.56;100.00;61375.16;5044030;28;20690;-39
2021/01/10 10:15:15;;;;;;;4.22;3.45;;;;;;;-148.56;100.00;61375.16;5034596;28;20172;-41
2021/01/10 10:17:40;;;;;;;7.70;3.50;;;;;;;-148.56;100.00;61375.16;5040029;28;21882;-41
2021/01/10 10:20:07;;;;;;;8.38;3.30;;;;;;;-148.56;100.00;61375.16;5035194;28;20041;-39
2021/01/10 10:22:33;;;;;;;6.38;2.85;;;;;;;-148.56;100.00;61375.16;5035770;28;20060;-41
2021/01/10 10:25:00;;;;;;;3.60;2.58;;;;;;;-148.56;100.00;61375.16;5032718;28;20048;-39
2021/01/10 10:27:30;;;;;;;6.25;2.83;;;;;;;-148.56;100.00;61375.16;5028423;28;20037;-44
2021/01/10 10:29:56;;;;;;;6.05;2.58;;;;;;;-148.56;100.00;61375.16;5032297;28;20044;-42
2021/01/10 10:32:22;;;;;;;12.90;2.80;;;;;;;-148.56;100.00;61375.16;5031218;28;20041;-37
2021/01/10 10:34:48;;;;;;;15.93;3.10;;;;;;;-148.56;100.00;61375.16;5033740;28;20666;-41
2021/01/10 10:37:16;;;;;;;16.90;3.40;;;;;;;-148.56;100.00;61375.16;5036097;28;20144;-43
2021/01/10 10:39:42;;;;;;;15.98;4.00;;;;;;;-148.56;100.00;61375.16;5039687;28;20041;-43
2021/01/10 10:42:10;;;;;;;9.55;3.28;;;;;;;-148.56;100.00;61375.16;5033757;28;20040;-40
2021/01/10 10:44:36;;;;;;;17.65;3.08;;;;;;;-148.56;100.00;61375.16;5036980;28;20033;-44
2021/01/10 10:47:02;;;;;;;12.50;2.67;;;;;;;-148.56;100.00;61375.16;5035698;28;20041;-40
2021/01/10 10:49:30;;;;;;;22.67;3.00;;;;;;;-148.56;100.00;61375.16;5044340;28;20053;-45
2021/01/10 10:51:55;;;;;;;6.05;2.33;;;;;;;-148.56;100.00;61375.16;5040885;28;20120;-41
2021/01/10 10:54:21;;;;;;;6.38;2.03;;;;;;;-148.56;100.00;61375.16;5044619;28;20054;-43
2021/01/10 10:56:47;;;;;;;10.45;2.40;;;;;;;-148.56;100.00;61375.16;5047160;28;20710;-43
2021/01/10 10:59:12;;;;;;;7.30;2.28;;;;;;;-148.56;100.00;61375.16;5048048;28;20123;-42
2021/01/10 11:01:38;;;;;;;8.93;2.25;;;;;;;-148.56;100.00;61375.16;5041796;28;20033;-43
2021/01/10 11:04:04;;;;;;;7.93;2.28;;;;;;;-148.56;100.00;61375.16;5045770;28;20043;-43
2021/01/10 11:06:30;;;;;;;5.40;2.10;;;;;;;-148.56;100.00;61375.16;5039558;28;20049;-45